sensor_id;sensor_type;location;lat;lon;timestamp;temperature;humidity
23114;DHT22;11726;50.122;8.832;2023-02-11T00:01:12;0.70;99.90
23114;DHT22;11726;50.122;8.832;2023-02-11T00:03:42;0.70;99.90
23114;DHT22;11726;50.122;8.832;2023-02-11T00:06:10;0.60;99.90
23114;DHT22;11726;50.122;8.832;2023-02-11T00:08:37;0.60;99.90
23114;DHT22;11726;50.122;8.832;2023-02-11T00:11:04;0.70;99.90
23114;DHT22;11726;50.122;8.832;2023-02-11T00:13:31;0.80;99.90
23114;DHT22;11726;50.122;8.832;2023-02-11T00:15:58;0.90;99.90
23114;DHT22;11726;50.122;8.832;2023-02-11T00:18:24;1.00;99.90
23114;DHT22;11726;50.122;8.832;2023-02-11T00:20:51;1.00;99.90
23114;DHT22;11726;50.122;8.832;2023-02-11T00:23:17;1.10;99.90
23114;DHT22;11726;50.122;8.832;2023-02-11T00:25:44;1.10;99.90
23114;DHT22;11726;50.122;8.832;2023-02-11T00:28:11;1.20;99.90
23114;DHT22;11726;50.122;8.832;2023-02-11T00:30:38;1.30;99.90
23114;DHT22;11726;50.122;8.832;2023-02-11T00:33:05;1.40;99.90
23114;DHT22;11726;50.122;8.832;2023-02-11T00:35:32;1.40;99.90
23114;DHT22;11726;50.122;8.832;2023-02-11T00:37:59;1.50;99.90
23114;DHT22;11726;50.122;8.832;2023-02-11T00:40:26;1.60;99.90
23114;DHT22;11726;50.122;8.832;2023-02-11T00:42:52;1.60;99.90
23114;DHT22;11726;50.122;8.832;2023-02-11T00:45:19;1.70;99.90
23114;DHT22;11726;50.122;8.832;2023-02-11T00:47:46;1.70;99.90
23114;DHT22;11726;50.122;8.832;2023-02-11T00:50:13;1.70;99.90
23114;DHT22;11726;50.122;8.832;2023-02-11T00:52:40;1.70;99.90
23114;DHT22;11726;50.122;8.832;2023-02-11T00:55:07;1.70;99.90
23114;DHT22;11726;50.122;8.832;2023-02-11T00:57:33;1.70;99.90
23114;DHT22;11726;50.122;8.832;2023-02-11T01:00:00;1.70;99.90
23114;DHT22;11726;50.122;8.832;2023-02-11T01:02:27;1.80;99.90
23114;DHT22;11726;50.122;8.832;2023-02-11T01:04:53;1.80;99.90
23114;DHT22;11726;50.122;8.832;2023-02-11T01:07:20;1.80;99.90
23114;DHT22;11726;50.122;8.832;2023-02-11T01:09:46;1.80;99.90
23114;DHT22;11726;50.122;8.832;2023-02-11T01:12:13;1.80;99.90
23114;DHT22;11726;50.122;8.832;2023-02-11T01:14:40;1.80;99.90
23114;DHT22;11726;50.122;8.832;2023-02-11T01:17:06;1.90;99.90
23114;DHT22;11726;50.122;8.832;2023-02-11T01:19:33;1.90;99.90
23114;DHT22;11726;50.122;8.832;2023-02-11T01:21:59;1.90;99.90
23114;DHT22;11726;50.122;8.832;2023-02-11T01:24:26;1.90;99.90
23114;DHT22;11726;50.122;8.832;2023-02-11T01:26:53;1.90;99.90
23114;DHT22;11726;50.122;8.832;2023-02-11T01:29:20;1.90;99.90
23114;DHT22;11726;50.122;8.832;2023-02-11T01:31:47;2.00;99.90
23114;DHT22;11726;50.122;8.832;2023-02-11T01:34:14;2.00;99.90
23114;DHT22;11726;50.122;8.832;2023-02-11T01:36:41;2.00;99.90
23114;DHT22;11726;50.122;8.832;2023-02-11T01:39:07;2.00;99.90
23114;DHT22;11726;50.122;8.832;2023-02-11T01:41:35;2.10;99.90
23114;DHT22;11726;50.122;8.832;2023-02-11T01:44:22;2.10;99.90
23114;DHT22;11726;50.122;8.832;2023-02-11T01:46:49;2.10;99.90
23114;DHT22;11726;50.122;8.832;2023-02-11T01:49:24;2.10;99.90
23114;DHT22;11726;50.122;8.832;2023-02-11T01:52:00;2.20;99.90
23114;DHT22;11726;50.122;8.832;2023-02-11T01:54:35;2.20;99.90
23114;DHT22;11726;50.122;8.832;2023-02-11T01:57:25;2.30;99.90
23114;DHT22;11726;50.122;8.832;2023-02-11T02:00:14;2.40;99.90
23114;DHT22;11726;50.122;8.832;2023-02-11T02:02:51;2.40;99.90
23114;DHT22;11726;50.122;8.832;2023-02-11T02:08:22;2.40;99.90
23114;DHT22;11726;50.122;8.832;2023-02-11T02:10:52;2.40;99.90
23114;DHT22;11726;50.122;8.832;2023-02-11T02:13:22;2.30;99.90
23114;DHT22;11726;50.122;8.832;2023-02-11T02:15:51;2.30;99.90
23114;DHT22;11726;50.122;8.832;2023-02-11T02:20:56;2.40;99.90
23114;DHT22;11726;50.122;8.832;2023-02-11T02:26:53;2.50;99.90
23114;DHT22;11726;50.122;8.832;2023-02-11T02:32:29;2.60;99.90
23114;DHT22;11726;50.122;8.832;2023-02-11T02:35:09;2.60;99.90
23114;DHT22;11726;50.122;8.832;2023-02-11T02:40:28;2.70;99.90
23114;DHT22;11726;50.122;8.832;2023-02-11T02:42:58;2.70;99.90
23114;DHT22;11726;50.122;8.832;2023-02-11T02:45:26;2.70;99.90
23114;DHT22;11726;50.122;8.832;2023-02-11T02:47:53;2.60;99.90
23114;DHT22;11726;50.122;8.832;2023-02-11T02:50:26;2.80;99.90
23114;DHT22;11726;50.122;8.832;2023-02-11T02:53:11;2.90;99.90
23114;DHT22;11726;50.122;8.832;2023-02-11T02:58:37;2.80;99.90
23114;DHT22;11726;50.122;8.832;2023-02-11T03:01:18;2.70;99.90
23114;DHT22;11726;50.122;8.832;2023-02-11T03:03:54;2.80;99.90
23114;DHT22;11726;50.122;8.832;2023-02-11T03:09:13;2.70;99.90
23114;DHT22;11726;50.122;8.832;2023-02-11T03:11:41;2.80;99.90
23114;DHT22;11726;50.122;8.832;2023-02-11T03:14:13;2.80;99.90
23114;DHT22;11726;50.122;8.832;2023-02-11T03:16:41;2.80;99.90
23114;DHT22;11726;50.122;8.832;2023-02-11T03:19:12;2.80;99.90
23114;DHT22;11726;50.122;8.832;2023-02-11T03:21:41;2.80;99.90
23114;DHT22;11726;50.122;8.832;2023-02-11T03:24:33;2.80;99.90
23114;DHT22;11726;50.122;8.832;2023-02-11T03:27:20;2.80;99.90
23114;DHT22;11726;50.122;8.832;2023-02-11T03:30:00;2.80;99.90
23114;DHT22;11726;50.122;8.832;2023-02-11T03:32:36;2.80;99.90
23114;DHT22;11726;50.122;8.832;2023-02-11T03:35:13;2.70;99.90
23114;DHT22;11726;50.122;8.832;2023-02-11T03:37:52;2.70;99.90
23114;DHT22;11726;50.122;8.832;2023-02-11T03:40:24;2.70;99.90
23114;DHT22;11726;50.122;8.832;2023-02-11T03:42:59;2.70;99.90
23114;DHT22;11726;50.122;8.832;2023-02-11T03:45:27;2.60;99.90
23114;DHT22;11726;50.122;8.832;2023-02-11T03:48:18;2.70;99.90
23114;DHT22;11726;50.122;8.832;2023-02-11T03:50:47;2.70;99.90
23114;DHT22;11726;50.122;8.832;2023-02-11T03:53:14;2.70;99.90
23114;DHT22;11726;50.122;8.832;2023-02-11T03:55:43;2.60;99.90
23114;DHT22;11726;50.122;8.832;2023-02-11T03:58:11;2.70;99.90
23114;DHT22;11726;50.122;8.832;2023-02-11T04:00:39;2.60;99.90
23114;DHT22;11726;50.122;8.832;2023-02-11T04:03:08;2.60;99.90
23114;DHT22;11726;50.122;8.832;2023-02-11T04:05:36;2.60;99.90
23114;DHT22;11726;50.122;8.832;2023-02-11T04:08:03;2.60;99.90
23114;DHT22;11726;50.122;8.832;2023-02-11T04:10:30;2.60;99.90
23114;DHT22;11726;50.122;8.832;2023-02-11T04:12:57;2.60;99.90
23114;DHT22;11726;50.122;8.832;2023-02-11T04:15:23;2.70;99.90
23114;DHT22;11726;50.122;8.832;2023-02-11T04:17:50;2.70;99.90
23114;DHT22;11726;50.122;8.832;2023-02-11T04:20:17;2.60;99.90
23114;DHT22;11726;50.122;8.832;2023-02-11T04:22:44;2.60;99.90
23114;DHT22;11726;50.122;8.832;2023-02-11T04:25:10;2.70;99.90
23114;DHT22;11726;50.122;8.832;2023-02-11T04:27:37;2.70;99.90
23114;DHT22;11726;50.122;8.832;2023-02-11T04:30:05;2.80;99.90
23114;DHT22;11726;50.122;8.832;2023-02-11T04:32:32;2.80;99.90
23114;DHT22;11726;50.122;8.832;2023-02-11T04:34:58;2.70;99.90
23114;DHT22;11726;50.122;8.832;2023-02-11T04:37:25;2.80;99.90
23114;DHT22;11726;50.122;8.832;2023-02-11T04:39:51;2.80;99.90
23114;DHT22;11726;50.122;8.832;2023-02-11T04:42:18;2.90;99.90
23114;DHT22;11726;50.122;8.832;2023-02-11T04:44:45;3.00;99.90
23114;DHT22;11726;50.122;8.832;2023-02-11T04:47:11;2.90;99.90
23114;DHT22;11726;50.122;8.832;2023-02-11T04:49:38;2.90;99.90
23114;DHT22;11726;50.122;8.832;2023-02-11T04:52:05;2.90;99.90
23114;DHT22;11726;50.122;8.832;2023-02-11T04:54:32;2.90;99.90
23114;DHT22;11726;50.122;8.832;2023-02-11T04:56:59;3.00;99.90
23114;DHT22;11726;50.122;8.832;2023-02-11T04:59:25;2.90;99.90
23114;DHT22;11726;50.122;8.832;2023-02-11T05:01:52;3.00;99.90
23114;DHT22;11726;50.122;8.832;2023-02-11T05:04:18;3.00;99.90
23114;DHT22;11726;50.122;8.832;2023-02-11T05:06:45;3.00;99.90
23114;DHT22;11726;50.122;8.832;2023-02-11T05:09:12;3.00;99.90
23114;DHT22;11726;50.122;8.832;2023-02-11T05:11:39;3.00;99.90
23114;DHT22;11726;50.122;8.832;2023-02-11T05:14:06;3.00;99.90
23114;DHT22;11726;50.122;8.832;2023-02-11T05:16:33;3.00;99.90
23114;DHT22;11726;50.122;8.832;2023-02-11T05:19:00;3.00;99.90
23114;DHT22;11726;50.122;8.832;2023-02-11T05:21:27;3.00;99.90
23114;DHT22;11726;50.122;8.832;2023-02-11T05:23:53;3.00;99.90
23114;DHT22;11726;50.122;8.832;2023-02-11T05:26:20;3.00;99.90
23114;DHT22;11726;50.122;8.832;2023-02-11T05:28:46;3.00;99.90
23114;DHT22;11726;50.122;8.832;2023-02-11T05:31:13;3.00;99.90
23114;DHT22;11726;50.122;8.832;2023-02-11T05:33:40;3.00;99.90
23114;DHT22;11726;50.122;8.832;2023-02-11T05:36:09;2.90;99.90
23114;DHT22;11726;50.122;8.832;2023-02-11T05:38:36;3.00;99.90
23114;DHT22;11726;50.122;8.832;2023-02-11T05:41:04;3.00;99.90
23114;DHT22;11726;50.122;8.832;2023-02-11T05:43:31;3.00;99.90
23114;DHT22;11726;50.122;8.832;2023-02-11T05:46:00;2.90;99.90
23114;DHT22;11726;50.122;8.832;2023-02-11T05:48:27;2.90;99.90
23114;DHT22;11726;50.122;8.832;2023-02-11T05:50:54;3.00;99.90
23114;DHT22;11726;50.122;8.832;2023-02-11T05:53:20;3.00;99.90
23114;DHT22;11726;50.122;8.832;2023-02-11T05:55:47;3.00;99.90
23114;DHT22;11726;50.122;8.832;2023-02-11T05:58:14;3.00;99.90
23114;DHT22;11726;50.122;8.832;2023-02-11T06:00:41;3.00;99.90
23114;DHT22;11726;50.122;8.832;2023-02-11T06:03:08;3.00;99.90
23114;DHT22;11726;50.122;8.832;2023-02-11T06:05:34;3.00;99.90
23114;DHT22;11726;50.122;8.832;2023-02-11T06:08:01;3.00;99.90
23114;DHT22;11726;50.122;8.832;2023-02-11T06:10:28;2.90;99.90
23114;DHT22;11726;50.122;8.832;2023-02-11T06:12:54;2.90;99.90
23114;DHT22;11726;50.122;8.832;2023-02-11T06:15:21;3.00;99.90
23114;DHT22;11726;50.122;8.832;2023-02-11T06:17:48;3.10;99.90
23114;DHT22;11726;50.122;8.832;2023-02-11T06:20:14;3.00;99.90
23114;DHT22;11726;50.122;8.832;2023-02-11T06:22:41;3.10;99.90
23114;DHT22;11726;50.122;8.832;2023-02-11T06:25:08;3.00;99.90
23114;DHT22;11726;50.122;8.832;2023-02-11T06:27:36;3.00;99.90
23114;DHT22;11726;50.122;8.832;2023-02-11T06:30:04;2.90;99.90
23114;DHT22;11726;50.122;8.832;2023-02-11T06:32:31;2.90;99.90
23114;DHT22;11726;50.122;8.832;2023-02-11T06:35:10;2.90;99.90
23114;DHT22;11726;50.122;8.832;2023-02-11T06:37:38;3.00;99.90
23114;DHT22;11726;50.122;8.832;2023-02-11T06:40:05;2.90;99.90
23114;DHT22;11726;50.122;8.832;2023-02-11T06:42:32;2.90;99.90
23114;DHT22;11726;50.122;8.832;2023-02-11T06:44:59;2.90;99.90
23114;DHT22;11726;50.122;8.832;2023-02-11T06:47:26;2.80;99.90
23114;DHT22;11726;50.122;8.832;2023-02-11T06:49:53;2.80;99.90
23114;DHT22;11726;50.122;8.832;2023-02-11T06:52:19;2.70;99.90
23114;DHT22;11726;50.122;8.832;2023-02-11T06:54:46;2.70;99.90
23114;DHT22;11726;50.122;8.832;2023-02-11T06:57:13;2.70;99.90
23114;DHT22;11726;50.122;8.832;2023-02-11T06:59:40;2.80;99.90
23114;DHT22;11726;50.122;8.832;2023-02-11T07:02:09;2.90;99.90
23114;DHT22;11726;50.122;8.832;2023-02-11T07:04:36;2.90;99.90
23114;DHT22;11726;50.122;8.832;2023-02-11T07:07:03;2.90;99.90
23114;DHT22;11726;50.122;8.832;2023-02-11T07:09:29;3.00;99.90
23114;DHT22;11726;50.122;8.832;2023-02-11T07:11:56;3.10;99.90
23114;DHT22;11726;50.122;8.832;2023-02-11T07:14:23;3.00;99.90
23114;DHT22;11726;50.122;8.832;2023-02-11T07:16:49;3.00;99.90
23114;DHT22;11726;50.122;8.832;2023-02-11T07:19:16;3.10;99.90
23114;DHT22;11726;50.122;8.832;2023-02-11T07:21:43;3.10;99.90
23114;DHT22;11726;50.122;8.832;2023-02-11T07:24:09;3.10;99.90
23114;DHT22;11726;50.122;8.832;2023-02-11T07:26:37;3.10;99.90
23114;DHT22;11726;50.122;8.832;2023-02-11T07:29:04;3.10;99.90
23114;DHT22;11726;50.122;8.832;2023-02-11T07:31:31;3.10;99.90
23114;DHT22;11726;50.122;8.832;2023-02-11T07:34:00;3.10;99.90
23114;DHT22;11726;50.122;8.832;2023-02-11T07:36:28;3.20;99.90
23114;DHT22;11726;50.122;8.832;2023-02-11T07:38:55;3.20;99.90
23114;DHT22;11726;50.122;8.832;2023-02-11T07:41:23;3.20;99.90
23114;DHT22;11726;50.122;8.832;2023-02-11T07:43:49;3.30;99.90
23114;DHT22;11726;50.122;8.832;2023-02-11T07:46:22;3.30;99.90
23114;DHT22;11726;50.122;8.832;2023-02-11T07:48:49;3.30;99.90
23114;DHT22;11726;50.122;8.832;2023-02-11T07:51:18;3.40;99.90
23114;DHT22;11726;50.122;8.832;2023-02-11T07:53:45;3.30;99.90
23114;DHT22;11726;50.122;8.832;2023-02-11T07:56:14;3.40;99.90
23114;DHT22;11726;50.122;8.832;2023-02-11T07:58:41;3.60;99.90
23114;DHT22;11726;50.122;8.832;2023-02-11T08:01:12;3.50;99.90
23114;DHT22;11726;50.122;8.832;2023-02-11T08:03:39;3.60;99.90
23114;DHT22;11726;50.122;8.832;2023-02-11T08:06:11;3.70;99.90
23114;DHT22;11726;50.122;8.832;2023-02-11T08:08:38;3.80;99.90
23114;DHT22;11726;50.122;8.832;2023-02-11T08:11:12;3.90;99.90
23114;DHT22;11726;50.122;8.832;2023-02-11T08:13:39;3.80;99.90
23114;DHT22;11726;50.122;8.832;2023-02-11T08:16:06;3.90;99.90
23114;DHT22;11726;50.122;8.832;2023-02-11T08:18:34;4.00;99.90
23114;DHT22;11726;50.122;8.832;2023-02-11T08:21:08;4.00;99.90
23114;DHT22;11726;50.122;8.832;2023-02-11T08:23:36;4.10;99.90
23114;DHT22;11726;50.122;8.832;2023-02-11T08:26:12;4.10;99.90
23114;DHT22;11726;50.122;8.832;2023-02-11T08:28:41;4.20;99.90
23114;DHT22;11726;50.122;8.832;2023-02-11T08:31:11;4.20;99.90
23114;DHT22;11726;50.122;8.832;2023-02-11T08:33:38;4.30;99.90
23114;DHT22;11726;50.122;8.832;2023-02-11T08:36:16;4.30;99.90
23114;DHT22;11726;50.122;8.832;2023-02-11T08:38:43;4.40;99.90
23114;DHT22;11726;50.122;8.832;2023-02-11T08:41:10;4.40;99.90
23114;DHT22;11726;50.122;8.832;2023-02-11T08:43:37;4.40;99.90
23114;DHT22;11726;50.122;8.832;2023-02-11T08:46:07;4.60;99.90
23114;DHT22;11726;50.122;8.832;2023-02-11T08:48:34;4.60;99.90
23114;DHT22;11726;50.122;8.832;2023-02-11T08:51:09;4.60;99.90
23114;DHT22;11726;50.122;8.832;2023-02-11T08:53:36;4.70;99.90
23114;DHT22;11726;50.122;8.832;2023-02-11T08:56:03;4.70;99.90
23114;DHT22;11726;50.122;8.832;2023-02-11T08:58:31;4.60;99.90
23114;DHT22;11726;50.122;8.832;2023-02-11T09:00:58;4.70;99.90
23114;DHT22;11726;50.122;8.832;2023-02-11T09:03:24;4.80;99.90
23114;DHT22;11726;50.122;8.832;2023-02-11T09:05:51;4.80;99.90
23114;DHT22;11726;50.122;8.832;2023-02-11T09:08:19;4.80;99.90
23114;DHT22;11726;50.122;8.832;2023-02-11T09:10:49;4.90;99.90
23114;DHT22;11726;50.122;8.832;2023-02-11T09:13:16;4.90;99.90
23114;DHT22;11726;50.122;8.832;2023-02-11T09:15:45;5.00;99.90
23114;DHT22;11726;50.122;8.832;2023-02-11T09:18:13;5.10;99.90
23114;DHT22;11726;50.122;8.832;2023-02-11T09:20:39;5.10;99.90
23114;DHT22;11726;50.122;8.832;2023-02-11T09:23:06;5.10;99.90
23114;DHT22;11726;50.122;8.832;2023-02-11T09:25:33;5.20;99.90
23114;DHT22;11726;50.122;8.832;2023-02-11T09:27:59;5.20;99.90
23114;DHT22;11726;50.122;8.832;2023-02-11T09:30:26;5.30;99.90
23114;DHT22;11726;50.122;8.832;2023-02-11T09:32:53;5.30;99.90
23114;DHT22;11726;50.122;8.832;2023-02-11T09:35:19;5.30;99.90
23114;DHT22;11726;50.122;8.832;2023-02-11T09:37:46;5.40;99.90
23114;DHT22;11726;50.122;8.832;2023-02-11T09:40:14;5.40;99.90
23114;DHT22;11726;50.122;8.832;2023-02-11T09:45:29;5.50;99.90
23114;DHT22;11726;50.122;8.832;2023-02-11T09:48:00;5.50;99.90
23114;DHT22;11726;50.122;8.832;2023-02-11T09:50:34;5.50;99.90
23114;DHT22;11726;50.122;8.832;2023-02-11T09:53:05;5.50;99.90
23114;DHT22;11726;50.122;8.832;2023-02-11T09:55:39;5.50;99.90
23114;DHT22;11726;50.122;8.832;2023-02-11T09:58:16;5.60;99.90
23114;DHT22;11726;50.122;8.832;2023-02-11T10:12:17;6.10;99.90
23114;DHT22;11726;50.122;8.832;2023-02-11T10:15:05;6.10;99.90
23114;DHT22;11726;50.122;8.832;2023-02-11T10:20:22;6.40;99.90
23114;DHT22;11726;50.122;8.832;2023-02-11T10:23:04;6.40;99.90
23114;DHT22;11726;50.122;8.832;2023-02-11T10:25:42;6.40;99.90
23114;DHT22;11726;50.122;8.832;2023-02-11T10:28:17;6.50;99.90
23114;DHT22;11726;50.122;8.832;2023-02-11T10:31:04;6.50;99.90
23114;DHT22;11726;50.122;8.832;2023-02-11T10:33:36;6.50;99.90
23114;DHT22;11726;50.122;8.832;2023-02-11T10:36:05;6.60;99.90
23114;DHT22;11726;50.122;8.832;2023-02-11T10:38:32;6.60;99.90
23114;DHT22;11726;50.122;8.832;2023-02-11T10:40:59;6.50;99.90
23114;DHT22;11726;50.122;8.832;2023-02-11T10:43:28;6.50;99.90
23114;DHT22;11726;50.122;8.832;2023-02-11T10:45:56;6.50;99.90
23114;DHT22;11726;50.122;8.832;2023-02-11T10:48:50;6.50;99.90
23114;DHT22;11726;50.122;8.832;2023-02-11T10:51:23;6.50;99.90
23114;DHT22;11726;50.122;8.832;2023-02-11T10:54:17;6.50;99.90
23114;DHT22;11726;50.122;8.832;2023-02-11T10:56:45;6.40;99.90
23114;DHT22;11726;50.122;8.832;2023-02-11T10:59:20;6.40;99.90
23114;DHT22;11726;50.122;8.832;2023-02-11T11:01:51;6.40;99.90
23114;DHT22;11726;50.122;8.832;2023-02-11T11:04:39;6.50;99.90
23114;DHT22;11726;50.122;8.832;2023-02-11T11:07:26;6.60;99.90
23114;DHT22;11726;50.122;8.832;2023-02-11T11:10:00;6.70;99.90
23114;DHT22;11726;50.122;8.832;2023-02-11T11:12:35;6.70;99.90
23114;DHT22;11726;50.122;8.832;2023-02-11T11:15:18;6.70;99.90
23114;DHT22;11726;50.122;8.832;2023-02-11T11:18:07;6.80;99.90
23114;DHT22;11726;50.122;8.832;2023-02-11T11:21:02;6.90;99.90
23114;DHT22;11726;50.122;8.832;2023-02-11T11:23:31;6.90;99.90
23114;DHT22;11726;50.122;8.832;2023-02-11T11:26:06;7.00;99.90
23114;DHT22;11726;50.122;8.832;2023-02-11T11:31:15;6.90;99.90
23114;DHT22;11726;50.122;8.832;2023-02-11T11:33:45;6.90;99.90
23114;DHT22;11726;50.122;8.832;2023-02-11T11:36:16;6.90;99.90
23114;DHT22;11726;50.122;8.832;2023-02-11T11:38:57;7.00;99.90
23114;DHT22;11726;50.122;8.832;2023-02-11T11:41:27;7.00;99.90
23114;DHT22;11726;50.122;8.832;2023-02-11T11:44:13;7.00;99.90
23114;DHT22;11726;50.122;8.832;2023-02-11T11:46:43;7.00;99.90
23114;DHT22;11726;50.122;8.832;2023-02-11T11:49:32;6.90;99.90
23114;DHT22;11726;50.122;8.832;2023-02-11T11:52:40;6.80;99.90
23114;DHT22;11726;50.122;8.832;2023-02-11T11:55:21;6.70;99.90
23114;DHT22;11726;50.122;8.832;2023-02-11T11:57:49;6.70;99.90
23114;DHT22;11726;50.122;8.832;2023-02-11T12:00:19;6.70;99.90
23114;DHT22;11726;50.122;8.832;2023-02-11T12:08:15;6.90;99.90
23114;DHT22;11726;50.122;8.832;2023-02-11T12:16:18;7.10;99.90
23114;DHT22;11726;50.122;8.832;2023-02-11T12:22:10;7.00;99.90
23114;DHT22;11726;50.122;8.832;2023-02-11T12:26:48;7.10;99.90
23114;DHT22;11726;50.122;8.832;2023-02-11T12:34:54;7.10;99.90
23114;DHT22;11726;50.122;8.832;2023-02-11T12:40:24;7.10;99.90
23114;DHT22;11726;50.122;8.832;2023-02-11T12:43:15;7.20;99.90
23114;DHT22;11726;50.122;8.832;2023-02-11T12:46:26;7.30;99.90
23114;DHT22;11726;50.122;8.832;2023-02-11T12:49:25;7.20;99.90
23114;DHT22;11726;50.122;8.832;2023-02-11T12:52:16;7.30;99.90
23114;DHT22;11726;50.122;8.832;2023-02-11T12:55:00;7.30;99.90
23114;DHT22;11726;50.122;8.832;2023-02-11T12:57:30;7.30;99.90
23114;DHT22;11726;50.122;8.832;2023-02-11T13:02:59;7.30;99.90
23114;DHT22;11726;50.122;8.832;2023-02-11T13:05:43;7.30;99.90
23114;DHT22;11726;50.122;8.832;2023-02-11T13:08:32;7.40;99.90
23114;DHT22;11726;50.122;8.832;2023-02-11T13:11:19;7.30;99.90
23114;DHT22;11726;50.122;8.832;2023-02-11T13:14:11;7.30;99.90
23114;DHT22;11726;50.122;8.832;2023-02-11T13:16:45;7.40;99.90
23114;DHT22;11726;50.122;8.832;2023-02-11T13:27:07;7.30;99.90
23114;DHT22;11726;50.122;8.832;2023-02-11T13:35:49;7.30;99.90
23114;DHT22;11726;50.122;8.832;2023-02-11T13:38:35;7.30;99.90
23114;DHT22;11726;50.122;8.832;2023-02-11T13:41:17;7.40;99.90
23114;DHT22;11726;50.122;8.832;2023-02-11T13:43:57;7.40;99.90
23114;DHT22;11726;50.122;8.832;2023-02-11T13:46:25;7.40;99.90
23114;DHT22;11726;50.122;8.832;2023-02-11T13:48:53;7.50;99.90
23114;DHT22;11726;50.122;8.832;2023-02-11T13:51:41;7.60;99.90
23114;DHT22;11726;50.122;8.832;2023-02-11T13:54:17;7.60;99.90
23114;DHT22;11726;50.122;8.832;2023-02-11T13:59:52;7.70;99.90
23114;DHT22;11726;50.122;8.832;2023-02-11T14:02:28;7.70;99.90
23114;DHT22;11726;50.122;8.832;2023-02-11T14:14:25;7.60;99.90
23114;DHT22;11726;50.122;8.832;2023-02-11T14:19:39;7.60;99.90
23114;DHT22;11726;50.122;8.832;2023-02-11T14:22:20;7.60;99.90
23114;DHT22;11726;50.122;8.832;2023-02-11T14:24:58;7.70;99.90
23114;DHT22;11726;50.122;8.832;2023-02-11T14:33:07;7.60;99.90
23114;DHT22;11726;50.122;8.832;2023-02-11T14:35:57;7.70;99.90
23114;DHT22;11726;50.122;8.832;2023-02-11T14:41:45;7.60;99.90
23114;DHT22;11726;50.122;8.832;2023-02-11T14:44:17;7.70;99.90
23114;DHT22;11726;50.122;8.832;2023-02-11T14:46:46;7.60;99.90
23114;DHT22;11726;50.122;8.832;2023-02-11T14:49:48;7.60;99.90
23114;DHT22;11726;50.122;8.832;2023-02-11T14:52:30;7.70;99.90
23114;DHT22;11726;50.122;8.832;2023-02-11T14:55:26;7.70;99.90
23114;DHT22;11726;50.122;8.832;2023-02-11T14:58:16;7.70;99.90
23114;DHT22;11726;50.122;8.832;2023-02-11T15:03:41;7.70;99.90
23114;DHT22;11726;50.122;8.832;2023-02-11T15:06:24;7.60;99.90
23114;DHT22;11726;50.122;8.832;2023-02-11T15:09:00;7.70;99.90
23114;DHT22;11726;50.122;8.832;2023-02-11T15:11:31;7.70;99.90
23114;DHT22;11726;50.122;8.832;2023-02-11T15:14:06;7.70;99.90
23114;DHT22;11726;50.122;8.832;2023-02-11T15:16:34;7.70;99.90
23114;DHT22;11726;50.122;8.832;2023-02-11T15:19:05;7.80;99.90
23114;DHT22;11726;50.122;8.832;2023-02-11T15:21:34;7.70;99.90
23114;DHT22;11726;50.122;8.832;2023-02-11T15:24:18;7.70;99.90
23114;DHT22;11726;50.122;8.832;2023-02-11T15:29:27;7.60;99.90
23114;DHT22;11726;50.122;8.832;2023-02-11T15:32:15;7.60;99.90
23114;DHT22;11726;50.122;8.832;2023-02-11T15:34:44;7.60;99.90
23114;DHT22;11726;50.122;8.832;2023-02-11T15:37:25;7.60;99.90
23114;DHT22;11726;50.122;8.832;2023-02-11T15:39:53;7.60;99.90
23114;DHT22;11726;50.122;8.832;2023-02-11T15:47:50;7.50;99.90
23114;DHT22;11726;50.122;8.832;2023-02-11T15:50:29;7.40;99.90
23114;DHT22;11726;50.122;8.832;2023-02-11T15:53:02;7.40;99.90
23114;DHT22;11726;50.122;8.832;2023-02-11T15:55:30;7.40;99.90
23114;DHT22;11726;50.122;8.832;2023-02-11T15:57:59;7.40;99.90
23114;DHT22;11726;50.122;8.832;2023-02-11T16:00:34;7.40;99.90
23114;DHT22;11726;50.122;8.832;2023-02-11T16:03:02;7.40;99.90
23114;DHT22;11726;50.122;8.832;2023-02-11T16:05:35;7.40;99.90
23114;DHT22;11726;50.122;8.832;2023-02-11T16:08:25;7.40;99.90
23114;DHT22;11726;50.122;8.832;2023-02-11T16:11:01;7.40;99.90
23114;DHT22;11726;50.122;8.832;2023-02-11T16:13:29;7.40;99.90
23114;DHT22;11726;50.122;8.832;2023-02-11T16:16:01;7.40;99.90
23114;DHT22;11726;50.122;8.832;2023-02-11T16:18:38;7.30;99.90
23114;DHT22;11726;50.122;8.832;2023-02-11T16:21:18;7.30;99.90
23114;DHT22;11726;50.122;8.832;2023-02-11T16:23:52;7.30;99.90
23114;DHT22;11726;50.122;8.832;2023-02-11T16:26:32;7.30;99.90
23114;DHT22;11726;50.122;8.832;2023-02-11T16:29:17;7.30;99.90
23114;DHT22;11726;50.122;8.832;2023-02-11T16:31:47;7.30;99.90
23114;DHT22;11726;50.122;8.832;2023-02-11T16:34:20;7.30;99.90
23114;DHT22;11726;50.122;8.832;2023-02-11T16:36:48;7.20;99.90
23114;DHT22;11726;50.122;8.832;2023-02-11T16:39:16;7.20;99.90
23114;DHT22;11726;50.122;8.832;2023-02-11T16:41:43;7.20;99.90
23114;DHT22;11726;50.122;8.832;2023-02-11T16:44:10;7.20;99.90
23114;DHT22;11726;50.122;8.832;2023-02-11T16:46:36;7.30;99.90
23114;DHT22;11726;50.122;8.832;2023-02-11T16:49:09;7.20;99.90
23114;DHT22;11726;50.122;8.832;2023-02-11T16:51:38;7.20;99.90
23114;DHT22;11726;50.122;8.832;2023-02-11T16:54:05;7.20;99.90
23114;DHT22;11726;50.122;8.832;2023-02-11T16:56:32;7.30;99.90
23114;DHT22;11726;50.122;8.832;2023-02-11T16:58:59;7.20;99.90
23114;DHT22;11726;50.122;8.832;2023-02-11T17:01:26;7.20;99.90
23114;DHT22;11726;50.122;8.832;2023-02-11T17:03:52;7.10;99.90
23114;DHT22;11726;50.122;8.832;2023-02-11T17:06:19;7.20;99.90
23114;DHT22;11726;50.122;8.832;2023-02-11T17:08:45;7.10;99.90
23114;DHT22;11726;50.122;8.832;2023-02-11T17:11:12;7.20;99.90
23114;DHT22;11726;50.122;8.832;2023-02-11T17:13:42;7.10;99.90
23114;DHT22;11726;50.122;8.832;2023-02-11T17:16:15;7.10;99.90
23114;DHT22;11726;50.122;8.832;2023-02-11T17:18:43;7.10;99.90
23114;DHT22;11726;50.122;8.832;2023-02-11T17:21:10;7.10;99.90
23114;DHT22;11726;50.122;8.832;2023-02-11T17:23:37;7.10;99.90
23114;DHT22;11726;50.122;8.832;2023-02-11T17:26:04;7.10;99.90
23114;DHT22;11726;50.122;8.832;2023-02-11T17:28:31;7.20;99.90
23114;DHT22;11726;50.122;8.832;2023-02-11T17:30:59;7.10;99.90
23114;DHT22;11726;50.122;8.832;2023-02-11T17:33:25;7.10;99.90
23114;DHT22;11726;50.122;8.832;2023-02-11T17:35:52;7.20;99.90
23114;DHT22;11726;50.122;8.832;2023-02-11T17:38:19;7.20;99.90
23114;DHT22;11726;50.122;8.832;2023-02-11T17:40:45;7.20;99.90
23114;DHT22;11726;50.122;8.832;2023-02-11T17:43:21;7.20;99.90
23114;DHT22;11726;50.122;8.832;2023-02-11T17:45:48;7.10;99.90
23114;DHT22;11726;50.122;8.832;2023-02-11T17:48:15;7.10;99.90
23114;DHT22;11726;50.122;8.832;2023-02-11T17:50:42;7.10;99.90
23114;DHT22;11726;50.122;8.832;2023-02-11T17:53:09;7.00;99.90
23114;DHT22;11726;50.122;8.832;2023-02-11T17:55:35;7.00;99.90
23114;DHT22;11726;50.122;8.832;2023-02-11T17:58:04;7.10;99.90
23114;DHT22;11726;50.122;8.832;2023-02-11T18:00:31;7.10;99.90
23114;DHT22;11726;50.122;8.832;2023-02-11T18:02:57;7.10;99.90
23114;DHT22;11726;50.122;8.832;2023-02-11T18:05:33;7.10;99.90
23114;DHT22;11726;50.122;8.832;2023-02-11T18:08:00;7.10;99.90